sensor_id;sensor_type;location;lat;lon;timestamp;pressure;altitude;pressure_sealevel;temperature;humidity
1616;BME280;801;47.982;7.810;2023-04-03T00:00:33;99164.97;;;6.60;100.00
1616;BME280;801;47.982;7.810;2023-04-03T00:03:00;99163.34;;;6.59;100.00
1616;BME280;801;47.982;7.810;2023-04-03T00:05:28;99165.59;;;6.37;100.00
1616;BME280;801;47.982;7.810;2023-04-03T00:07:55;99163.66;;;6.44;100.00
1616;BME280;801;47.982;7.810;2023-04-03T00:10:21;99170.00;;;6.25;100.00
1616;BME280;801;47.982;7.810;2023-04-03T00:12:48;99167.13;;;6.27;100.00
1616;BME280;801;47.982;7.810;2023-04-03T00:15:14;99171.53;;;6.39;100.00
1616;BME280;801;47.982;7.810;2023-04-03T00:17:41;99168.94;;;6.51;100.00
1616;BME280;801;47.982;7.810;2023-04-03T00:20:08;99170.22;;;6.49;100.00
1616;BME280;801;47.982;7.810;2023-04-03T00:22:36;99182.31;;;6.26;100.00
1616;BME280;801;47.982;7.810;2023-04-03T00:25:02;99174.97;;;6.47;100.00
1616;BME280;801;47.982;7.810;2023-04-03T00:27:29;99175.22;;;6.38;100.00
1616;BME280;801;47.982;7.810;2023-04-03T00:29:55;99187.28;;;6.48;100.00
1616;BME280;801;47.982;7.810;2023-04-03T00:32:22;99188.53;;;6.20;100.00
1616;BME280;801;47.982;7.810;2023-04-03T00:34:48;99179.81;;;6.31;100.00
1616;BME280;801;47.982;7.810;2023-04-03T00:37:15;99180.94;;;6.42;100.00
1616;BME280;801;47.982;7.810;2023-04-03T00:39:43;99185.66;;;6.65;100.00
1616;BME280;801;47.982;7.810;2023-04-03T00:42:09;99190.53;;;6.50;100.00
1616;BME280;801;47.982;7.810;2023-04-03T00:47:40;99187.22;;;6.29;100.00
1616;BME280;801;47.982;7.810;2023-04-03T00:50:08;99181.28;;;6.27;100.00
1616;BME280;801;47.982;7.810;2023-04-03T00:52:37;99189.63;;;6.37;100.00
1616;BME280;801;47.982;7.810;2023-04-03T00:55:08;99180.72;;;6.18;100.00
1616;BME280;801;47.982;7.810;2023-04-03T00:57:35;99179.06;;;6.24;100.00
1616;BME280;801;47.982;7.810;2023-04-03T01:00:05;99169.41;;;6.23;100.00
1616;BME280;801;47.982;7.810;2023-04-03T01:02:34;99177.63;;;6.47;100.00
1616;BME280;801;47.982;7.810;2023-04-03T01:05:01;99171.25;;;6.22;100.00
1616;BME280;801;47.982;7.810;2023-04-03T01:07:30;99172.34;;;6.15;100.00
1616;BME280;801;47.982;7.810;2023-04-03T01:10:00;99169.72;;;6.08;100.00
1616;BME280;801;47.982;7.810;2023-04-03T01:12:30;99173.47;;;6.00;100.00
1616;BME280;801;47.982;7.810;2023-04-03T01:14:58;99179.16;;;6.11;100.00
1616;BME280;801;47.982;7.810;2023-04-03T01:17:30;99170.00;;;6.00;100.00
1616;BME280;801;47.982;7.810;2023-04-03T01:20:22;99164.88;;;5.98;100.00
1616;BME280;801;47.982;7.810;2023-04-03T01:22:56;99169.44;;;5.85;100.00
1616;BME280;801;47.982;7.810;2023-04-03T01:25:26;99167.66;;;5.78;100.00
1616;BME280;801;47.982;7.810;2023-04-03T01:27:54;99171.84;;;5.99;100.00
1616;BME280;801;47.982;7.810;2023-04-03T01:30:24;99172.84;;;6.05;100.00
1616;BME280;801;47.982;7.810;2023-04-03T01:32:55;99168.38;;;6.24;100.00
1616;BME280;801;47.982;7.810;2023-04-03T01:35:22;99174.81;;;6.16;100.00
1616;BME280;801;47.982;7.810;2023-04-03T01:37:48;99170.00;;;6.25;100.00
1616;BME280;801;47.982;7.810;2023-04-03T01:40:15;99175.03;;;6.15;100.00
1616;BME280;801;47.982;7.810;2023-04-03T01:42:41;99183.94;;;6.27;100.00
1616;BME280;801;47.982;7.810;2023-04-03T01:45:08;99181.94;;;6.22;100.00
1616;BME280;801;47.982;7.810;2023-04-03T01:47:35;99186.00;;;6.25;100.00
1616;BME280;801;47.982;7.810;2023-04-03T01:50:03;99176.81;;;6.21;100.00
1616;BME280;801;47.982;7.810;2023-04-03T01:52:30;99177.19;;;6.50;100.00
1616;BME280;801;47.982;7.810;2023-04-03T01:54:56;99177.78;;;6.52;100.00
1616;BME280;801;47.982;7.810;2023-04-03T01:57:23;99175.66;;;6.35;100.00
1616;BME280;801;47.982;7.810;2023-04-03T01:59:49;99175.81;;;6.40;100.00
1616;BME280;801;47.982;7.810;2023-04-03T02:02:16;99164.53;;;6.38;100.00
1616;BME280;801;47.982;7.810;2023-04-03T02:04:45;99167.88;;;6.34;100.00
1616;BME280;801;47.982;7.810;2023-04-03T02:07:12;99167.78;;;6.22;100.00
1616;BME280;801;47.982;7.810;2023-04-03T02:09:39;99169.56;;;6.28;100.00
1616;BME280;801;47.982;7.810;2023-04-03T02:12:06;99160.72;;;6.02;100.00
1616;BME280;801;47.982;7.810;2023-04-03T02:14:32;99157.19;;;6.09;100.00
1616;BME280;801;47.982;7.810;2023-04-03T02:17:00;99158.66;;;6.05;100.00
1616;BME280;801;47.982;7.810;2023-04-03T02:19:30;99158.41;;;5.81;100.00
1616;BME280;801;47.982;7.810;2023-04-03T02:21:56;99163.84;;;5.99;100.00
1616;BME280;801;47.982;7.810;2023-04-03T02:24:24;99157.72;;;5.92;100.00
1616;BME280;801;47.982;7.810;2023-04-03T02:26:51;99152.38;;;5.92;100.00
1616;BME280;801;47.982;7.810;2023-04-03T02:29:17;99158.44;;;5.74;100.00
1616;BME280;801;47.982;7.810;2023-04-03T02:31:44;99162.84;;;5.87;100.00
1616;BME280;801;47.982;7.810;2023-04-03T02:34:10;99167.34;;;5.93;100.00
1616;BME280;801;47.982;7.810;2023-04-03T02:36:37;99162.44;;;5.90;100.00
1616;BME280;801;47.982;7.810;2023-04-03T02:39:04;99164.91;;;5.92;100.00
1616;BME280;801;47.982;7.810;2023-04-03T02:41:31;99164.88;;;5.98;100.00
1616;BME280;801;47.982;7.810;2023-04-03T02:44:00;99162.84;;;5.87;100.00
1616;BME280;801;47.982;7.810;2023-04-03T02:46:26;99163.59;;;6.08;100.00
1616;BME280;801;47.982;7.810;2023-04-03T02:48:53;99163.97;;;5.73;100.00
1616;BME280;801;47.982;7.810;2023-04-03T02:51:21;99157.72;;;5.60;100.00
1616;BME280;801;47.982;7.810;2023-04-03T02:53:49;99167.56;;;5.53;100.00
1616;BME280;801;47.982;7.810;2023-04-03T02:56:15;99169.22;;;5.54;100.00
1616;BME280;801;47.982;7.810;2023-04-03T02:58:44;99162.72;;;5.44;100.00
1616;BME280;801;47.982;7.810;2023-04-03T03:01:11;99169.75;;;5.70;100.00
1616;BME280;801;47.982;7.810;2023-04-03T03:03:38;99169.16;;;5.68;100.00
1616;BME280;801;47.982;7.810;2023-04-03T03:06:06;99168.94;;;5.24;100.00
1616;BME280;801;47.982;7.810;2023-04-03T03:08:34;99170.41;;;5.13;100.00
1616;BME280;801;47.982;7.810;2023-04-03T03:11:00;99176.31;;;5.22;100.00
1616;BME280;801;47.982;7.810;2023-04-03T03:13:27;99175.22;;;5.43;100.00
1616;BME280;801;47.982;7.810;2023-04-03T03:15:55;99179.72;;;5.49;100.00
1616;BME280;801;47.982;7.810;2023-04-03T03:18:22;99184.94;;;5.24;100.00
1616;BME280;801;47.982;7.810;2023-04-03T03:20:51;99194.59;;;5.18;100.00
1616;BME280;801;47.982;7.810;2023-04-03T03:23:17;99184.13;;;5.24;100.00
1616;BME280;801;47.982;7.810;2023-04-03T03:25:44;99182.53;;;5.09;100.00
1616;BME280;801;47.982;7.810;2023-04-03T03:28:10;99181.94;;;5.01;100.00
1616;BME280;801;47.982;7.810;2023-04-03T03:30:37;99184.06;;;5.37;100.00
1616;BME280;801;47.982;7.810;2023-04-03T03:33:05;99179.97;;;5.34;100.00
1616;BME280;801;47.982;7.810;2023-04-03T03:35:32;99183.34;;;5.61;100.00
1616;BME280;801;47.982;7.810;2023-04-03T03:37:58;99185.06;;;5.81;100.00
1616;BME280;801;47.982;7.810;2023-04-03T03:40:25;99178.91;;;5.42;100.00
1616;BME280;801;47.982;7.810;2023-04-03T03:42:51;99185.59;;;5.58;100.00
1616;BME280;801;47.982;7.810;2023-04-03T03:45:18;99180.63;;;5.68;100.00
1616;BME280;801;47.982;7.810;2023-04-03T03:47:44;99189.94;;;5.52;100.00
1616;BME280;801;47.982;7.810;2023-04-03T03:50:12;99179.81;;;5.68;100.00
1616;BME280;801;47.982;7.810;2023-04-03T03:52:39;99185.31;;;5.73;100.00
1616;BME280;801;47.982;7.810;2023-04-03T03:55:06;99190.44;;;5.74;100.00
1616;BME280;801;47.982;7.810;2023-04-03T03:57:33;99191.22;;;5.81;100.00
1616;BME280;801;47.982;7.810;2023-04-03T03:59:59;99186.38;;;5.72;100.00
1616;BME280;801;47.982;7.810;2023-04-03T04:02:26;99195.03;;;5.60;100.00
1616;BME280;801;47.982;7.810;2023-04-03T04:04:52;99183.09;;;5.70;100.00
1616;BME280;801;47.982;7.810;2023-04-03T04:07:20;99193.25;;;5.48;100.00
1616;BME280;801;47.982;7.810;2023-04-03T04:09:47;99193.78;;;5.63;100.00
1616;BME280;801;47.982;7.810;2023-04-03T04:12:13;99184.75;;;5.64;100.00
1616;BME280;801;47.982;7.810;2023-04-03T04:14:41;99175.94;;;5.64;100.00
1616;BME280;801;47.982;7.810;2023-04-03T04:17:07;99187.03;;;5.60;100.00
1616;BME280;801;47.982;7.810;2023-04-03T04:19:34;99192.00;;;5.89;100.00
1616;BME280;801;47.982;7.810;2023-04-03T04:22:00;99187.13;;;5.79;100.00
1616;BME280;801;47.982;7.810;2023-04-03T04:24:28;99188.16;;;5.78;100.00
1616;BME280;801;47.982;7.810;2023-04-03T04:26:55;99186.81;;;5.62;100.00
1616;BME280;801;47.982;7.810;2023-04-03T04:29:21;99189.97;;;5.84;100.00
1616;BME280;801;47.982;7.810;2023-04-03T04:31:48;99204.44;;;5.70;100.00
1616;BME280;801;47.982;7.810;2023-04-03T04:34:14;99190.53;;;5.99;100.00
1616;BME280;801;47.982;7.810;2023-04-03T04:36:41;99184.59;;;5.97;100.00
1616;BME280;801;47.982;7.810;2023-04-03T04:39:08;99182.56;;;5.86;100.00
1616;BME280;801;47.982;7.810;2023-04-03T04:41:36;99185.78;;;6.01;100.00
1616;BME280;801;47.982;7.810;2023-04-03T04:44:02;99189.88;;;6.04;100.00
1616;BME280;801;47.982;7.810;2023-04-03T04:46:29;99185.38;;;5.98;100.00
1616;BME280;801;47.982;7.810;2023-04-03T04:48:55;99183.69;;;6.10;100.00
1616;BME280;801;47.982;7.810;2023-04-03T04:51:22;99189.38;;;6.14;100.00
1616;BME280;801;47.982;7.810;2023-04-03T04:53:48;99186.38;;;6.03;100.00
1616;BME280;801;47.982;7.810;2023-04-03T04:56:14;99190.31;;;6.01;100.00
1616;BME280;801;47.982;7.810;2023-04-03T04:58:42;99186.69;;;5.82;100.00
1616;BME280;801;47.982;7.810;2023-04-03T05:01:10;99189.22;;;5.70;100.00
1616;BME280;801;47.982;7.810;2023-04-03T05:03:37;99192.09;;;5.69;100.00
1616;BME280;801;47.982;7.810;2023-04-03T05:06:04;99194.84;;;5.87;100.00
1616;BME280;801;47.982;7.810;2023-04-03T05:08:30;99201.63;;;5.96;100.00
1616;BME280;801;47.982;7.810;2023-04-03T05:10:57;99201.16;;;5.68;100.00
1616;BME280;801;47.982;7.810;2023-04-03T05:13:23;99197.59;;;5.80;100.00
1616;BME280;801;47.982;7.810;2023-04-03T05:15:51;99198.03;;;5.71;100.00
1616;BME280;801;47.982;7.810;2023-04-03T05:18:18;99194.59;;;5.64;100.00
1616;BME280;801;47.982;7.810;2023-04-03T05:20:44;99203.63;;;5.62;100.00
1616;BME280;801;47.982;7.810;2023-04-03T05:23:11;99204.91;;;5.53;100.00
1616;BME280;801;47.982;7.810;2023-04-03T05:25:38;99203.63;;;5.62;100.00
1616;BME280;801;47.982;7.810;2023-04-03T05:28:05;99203.97;;;5.73;100.00
1616;BME280;801;47.982;7.810;2023-04-03T05:30:32;99209.56;;;5.65;100.00
1616;BME280;801;47.982;7.810;2023-04-03T05:32:59;99202.41;;;5.65;100.00
1616;BME280;801;47.982;7.810;2023-04-03T05:35:26;99198.00;;;5.39;100.00
1616;BME280;801;47.982;7.810;2023-04-03T05:37:52;99201.63;;;5.51;100.00
1616;BME280;801;47.982;7.810;2023-04-03T05:40:19;99197.94;;;5.52;100.00
1616;BME280;801;47.982;7.810;2023-04-03T05:42:45;99199.09;;;5.70;100.00
1616;BME280;801;47.982;7.810;2023-04-03T05:45:12;99208.47;;;5.79;100.00
1616;BME280;801;47.982;7.810;2023-04-03T05:47:38;99206.53;;;5.54;100.00
1616;BME280;801;47.982;7.810;2023-04-03T05:50:07;99208.91;;;5.69;100.00
1616;BME280;801;47.982;7.810;2023-04-03T05:52:36;99211.03;;;5.60;100.00
1616;BME280;801;47.982;7.810;2023-04-03T05:55:04;99210.56;;;5.70;100.00
1616;BME280;801;47.982;7.810;2023-04-03T05:57:31;99208.50;;;5.72;100.00
1616;BME280;801;47.982;7.810;2023-04-03T05:59:58;99223.66;;;5.78;100.00
1616;BME280;801;47.982;7.810;2023-04-03T06:02:24;99217.75;;;5.70;100.00
1616;BME280;801;47.982;7.810;2023-04-03T06:04:51;99214.22;;;5.76;100.00
1616;BME280;801;47.982;7.810;2023-04-03T06:07:20;99218.34;;;5.78;100.00
1616;BME280;801;47.982;7.810;2023-04-03T06:09:48;99220.34;;;5.83;100.00
1616;BME280;801;47.982;7.810;2023-04-03T06:12:16;99215.50;;;5.67;100.00
1616;BME280;801;47.982;7.810;2023-04-03T06:14:43;99224.28;;;5.80;100.00
1616;BME280;801;47.982;7.810;2023-04-03T06:17:10;99214.94;;;6.03;100.00
1616;BME280;801;47.982;7.810;2023-04-03T06:19:37;99212.47;;;6.01;100.00
1616;BME280;801;47.982;7.810;2023-04-03T06:22:04;99219.06;;;5.92;100.00
1616;BME280;801;47.982;7.810;2023-04-03T06:24:32;99222.38;;;5.94;100.00
1616;BME280;801;47.982;7.810;2023-04-03T06:26:59;99216.06;;;6.14;100.00
1616;BME280;801;47.982;7.810;2023-04-03T06:29:25;99217.63;;;6.28;100.00
1616;BME280;801;47.982;7.810;2023-04-03T06:31:52;99218.59;;;6.34;100.00
1616;BME280;801;47.982;7.810;2023-04-03T06:34:18;99219.06;;;5.92;100.00
1616;BME280;801;47.982;7.810;2023-04-03T06:36:45;99228.00;;;6.11;100.00
1616;BME280;801;47.982;7.810;2023-04-03T06:39:14;99225.69;;;6.21;100.00
1616;BME280;801;47.982;7.810;2023-04-03T06:41:43;99224.75;;;6.02;100.00
1616;BME280;801;47.982;7.810;2023-04-03T06:44:10;99225.47;;;6.23;100.00
1616;BME280;801;47.982;7.810;2023-04-03T06:46:39;99238.97;;;6.28;100.00
1616;BME280;801;47.982;7.810;2023-04-03T06:49:05;99233.00;;;6.33;100.00
1616;BME280;801;47.982;7.810;2023-04-03T06:51:33;99239.75;;;6.35;100.00
1616;BME280;801;47.982;7.810;2023-04-03T06:54:01;99237.22;;;6.40;100.00
1616;BME280;801;47.982;7.810;2023-04-03T06:56:28;99237.22;;;6.40;100.00
1616;BME280;801;47.982;7.810;2023-04-03T06:58:56;99239.28;;;6.38;100.00
1616;BME280;801;47.982;7.810;2023-04-03T07:01:25;99240.69;;;6.48;100.00
1616;BME280;801;47.982;7.810;2023-04-03T07:03:52;99245.03;;;6.67;100.00
1616;BME280;801;47.982;7.810;2023-04-03T07:06:20;99248.84;;;6.78;100.00
1616;BME280;801;47.982;7.810;2023-04-03T07:08:46;99254.19;;;6.78;100.00
1616;BME280;801;47.982;7.810;2023-04-03T07:11:14;99251.91;;;6.81;100.00
1616;BME280;801;47.982;7.810;2023-04-03T07:13:41;99256.03;;;6.77;100.00
1616;BME280;801;47.982;7.810;2023-04-03T07:16:09;99254.63;;;6.50;100.00
1616;BME280;801;47.982;7.810;2023-04-03T07:18:36;99260.63;;;6.70;100.00
1616;BME280;801;47.982;7.810;2023-04-03T07:21:03;99259.47;;;6.84;100.00
1616;BME280;801;47.982;7.810;2023-04-03T07:23:30;99261.66;;;6.69;100.00
1616;BME280;801;47.982;7.810;2023-04-03T07:25:57;99266.06;;;6.82;100.00
1616;BME280;801;47.982;7.810;2023-04-03T07:28:24;99266.88;;;6.82;100.00
1616;BME280;801;47.982;7.810;2023-04-03T07:30:52;99260.66;;;6.89;100.00
1616;BME280;801;47.982;7.810;2023-04-03T07:33:22;99267.94;;;6.81;100.00
1616;BME280;801;47.982;7.810;2023-04-03T07:35:49;99262.09;;;6.66;98.74
1616;BME280;801;47.982;7.810;2023-04-03T07:38:16;99269.13;;;6.85;98.89
1616;BME280;801;47.982;7.810;2023-04-03T07:40:45;99271.97;;;6.91;100.00
1616;BME280;801;47.982;7.810;2023-04-03T07:43:12;99274.88;;;7.07;100.00
1616;BME280;801;47.982;7.810;2023-04-03T07:45:39;99286.34;;;7.33;100.00
1616;BME280;801;47.982;7.810;2023-04-03T07:48:05;99285.81;;;7.24;97.24
1616;BME280;801;47.982;7.810;2023-04-03T07:50:33;99278.72;;;7.37;100.00
1616;BME280;801;47.982;7.810;2023-04-03T07:53:01;99286.81;;;7.30;98.17
1616;BME280;801;47.982;7.810;2023-04-03T07:55:28;99283.75;;;7.26;97.11
1616;BME280;801;47.982;7.810;2023-04-03T07:57:54;99285.81;;;7.24;94.50
1616;BME280;801;47.982;7.810;2023-04-03T08:00:21;99288.63;;;7.30;93.31
1616;BME280;801;47.982;7.810;2023-04-03T08:02:48;99285.69;;;7.38;94.59
1616;BME280;801;47.982;7.810;2023-04-03T08:05:16;99285.75;;;7.31;92.76
1616;BME280;801;47.982;7.810;2023-04-03T08:07:44;99285.38;;;7.46;92.26
1616;BME280;801;47.982;7.810;2023-04-03T08:10:11;99293.34;;;7.53;93.05
1616;BME280;801;47.982;7.810;2023-04-03T08:12:38;99283.97;;;7.62;92.96
1616;BME280;801;47.982;7.810;2023-04-03T08:15:05;99291.47;;;7.72;93.60
1616;BME280;801;47.982;7.810;2023-04-03T08:17:32;99289.53;;;7.60;90.93
1616;BME280;801;47.982;7.810;2023-04-03T08:19:58;99296.72;;;7.78;90.41
1616;BME280;801;47.982;7.810;2023-04-03T08:22:25;99295.03;;;7.84;90.94
1616;BME280;801;47.982;7.810;2023-04-03T08:24:53;99291.66;;;7.70;88.03
1616;BME280;801;47.982;7.810;2023-04-03T08:27:20;99299.47;;;7.72;89.89
1616;BME280;801;47.982;7.810;2023-04-03T08:29:46;99305.56;;;7.79;87.58
1616;BME280;801;47.982;7.810;2023-04-03T08:32:12;99291.47;;;7.72;87.64
1616;BME280;801;47.982;7.810;2023-04-03T08:34:39;99304.97;;;7.77;89.55
1616;BME280;801;47.982;7.810;2023-04-03T08:37:06;99302.28;;;7.95;89.67
1616;BME280;801;47.982;7.810;2023-04-03T08:39:32;99301.69;;;7.93;89.64
1616;BME280;801;47.982;7.810;2023-04-03T08:42:04;99301.69;;;7.93;90.44
1616;BME280;801;47.982;7.810;2023-04-03T08:44:38;99312.84;;;7.90;88.50
1616;BME280;801;47.982;7.810;2023-04-03T08:47:12;99304.72;;;7.97;88.74
1616;BME280;801;47.982;7.810;2023-04-03T08:49:46;99310.47;;;8.00;88.52
1616;BME280;801;47.982;7.810;2023-04-03T08:52:18;99315.59;;;7.83;86.74
1616;BME280;801;47.982;7.810;2023-04-03T08:54:50;99310.66;;;7.99;87.66
1616;BME280;801;47.982;7.810;2023-04-03T08:57:23;99318.81;;;7.74;86.68
1616;BME280;801;47.982;7.810;2023-04-03T08:59:52;99334.06;;;7.55;86.07
1616;BME280;801;47.982;7.810;2023-04-03T09:02:25;99328.72;;;7.55;86.17
1616;BME280;801;47.982;7.810;2023-04-03T09:04:53;99331.88;;;7.63;85.42
1616;BME280;801;47.982;7.810;2023-04-03T09:07:24;99326.84;;;7.55;83.86
1616;BME280;801;47.982;7.810;2023-04-03T09:09:52;99329.19;;;7.63;83.47
1616;BME280;801;47.982;7.810;2023-04-03T09:12:23;99329.44;;;7.80;83.60
1616;BME280;801;47.982;7.810;2023-04-03T09:14:57;99328.09;;;7.89;81.90
1616;BME280;801;47.982;7.810;2023-04-03T09:17:36;99328.91;;;7.90;79.81
1616;BME280;801;47.982;7.810;2023-04-03T09:20:15;99334.41;;;7.95;78.80
1616;BME280;801;47.982;7.810;2023-04-03T09:22:43;99326.94;;;8.16;77.89
1616;BME280;801;47.982;7.810;2023-04-03T09:25:13;99329.50;;;8.10;73.95
1616;BME280;801;47.982;7.810;2023-04-03T09:27:42;99323.53;;;8.08;76.04
1616;BME280;801;47.982;7.810;2023-04-03T09:30:13;99327.47;;;8.36;76.90
1616;BME280;801;47.982;7.810;2023-04-03T09:32:40;99328.97;;;8.32;76.80
1616;BME280;801;47.982;7.810;2023-04-03T09:35:16;99330.31;;;8.41;80.10
1616;BME280;801;47.982;7.810;2023-04-03T09:37:45;99327.78;;;8.46;77.65
1616;BME280;801;47.982;7.810;2023-04-03T09:40:29;99331.38;;;8.40;74.21
1616;BME280;801;47.982;7.810;2023-04-03T09:42:59;99335.03;;;8.58;72.97
1616;BME280;801;47.982;7.810;2023-04-03T09:45:28;99333.47;;;8.92;72.55
1616;BME280;801;47.982;7.810;2023-04-03T09:48:13;99337.09;;;9.09;67.90
1616;BME280;801;47.982;7.810;2023-04-03T09:50:54;99328.94;;;9.04;68.71
1616;BME280;801;47.982;7.810;2023-04-03T09:53:35;99338.16;;;9.20;67.13
1616;BME280;801;47.982;7.810;2023-04-03T09:56:04;99334.28;;;8.92;64.18
1616;BME280;801;47.982;7.810;2023-04-03T09:58:38;99339.09;;;9.26;64.55
1616;BME280;801;47.982;7.810;2023-04-03T10:01:06;99343.53;;;9.55;65.45
1616;BME280;801;47.982;7.810;2023-04-03T10:04:02;99354.97;;;9.16;62.90
1616;BME280;801;47.982;7.810;2023-04-03T10:06:31;99347.34;;;8.89;62.37
1616;BME280;801;47.982;7.810;2023-04-03T10:08:59;99356.47;;;9.11;62.72
1616;BME280;801;47.982;7.810;2023-04-03T10:11:26;99348.63;;;8.86;61.73
1616;BME280;801;47.982;7.810;2023-04-03T10:13:55;99350.63;;;9.26;64.04
1616;BME280;801;47.982;7.810;2023-04-03T10:16:27;99355.28;;;9.31;60.80
1616;BME280;801;47.982;7.810;2023-04-03T10:21:47;99353.88;;;9.05;61.85
1616;BME280;801;47.982;7.810;2023-04-03T10:24:20;99353.88;;;9.05;63.83
1616;BME280;801;47.982;7.810;2023-04-03T10:26:53;99346.53;;;9.00;62.49
1616;BME280;801;47.982;7.810;2023-04-03T10:29:34;99345.50;;;9.37;68.50
1616;BME280;801;47.982;7.810;2023-04-03T10:32:16;99349.94;;;9.54;69.14
1616;BME280;801;47.982;7.810;2023-04-03T10:34:53;99345.25;;;9.26;61.35
1616;BME280;801;47.982;7.810;2023-04-03T10:37:25;99347.13;;;9.02;63.05
1616;BME280;801;47.982;7.810;2023-04-03T10:39:57;99345.69;;;9.00;60.67
1616;BME280;801;47.982;7.810;2023-04-03T10:42:29;99335.22;;;8.86;62.07
1616;BME280;801;47.982;7.810;2023-04-03T10:45:15;99344.09;;;8.99;60.29
1616;BME280;801;47.982;7.810;2023-04-03T10:47:51;99339.91;;;9.26;61.02
1616;BME280;801;47.982;7.810;2023-04-03T10:50:29;99325.09;;;9.12;59.55
1616;BME280;801;47.982;7.810;2023-04-03T10:53:03;99341.19;;;9.24;63.53
1616;BME280;801;47.982;7.810;2023-04-03T10:55:36;99342.47;;;8.98;61.54
1616;BME280;801;47.982;7.810;2023-04-03T10:58:06;99339.53;;;8.99;64.02
1616;BME280;801;47.982;7.810;2023-04-03T11:00:39;99344.69;;;9.12;63.08
1616;BME280;801;47.982;7.810;2023-04-03T11:03:12;99343.75;;;9.42;60.18
1616;BME280;801;47.982;7.810;2023-04-03T11:05:43;99341.75;;;9.38;61.49
1616;BME280;801;47.982;7.810;2023-04-03T11:08:16;99347.25;;;9.19;60.03
1616;BME280;801;47.982;7.810;2023-04-03T11:10:48;99337.78;;;9.28;63.29
1616;BME280;801;47.982;7.810;2023-04-03T11:13:19;99334.88;;;9.06;60.47
1616;BME280;801;47.982;7.810;2023-04-03T11:15:51;99328.25;;;9.09;65.96
1616;BME280;801;47.982;7.810;2023-04-03T11:18:21;99335.22;;;9.22;64.71
1616;BME280;801;47.982;7.810;2023-04-03T11:20:57;99330.91;;;9.56;70.17
1616;BME280;801;47.982;7.810;2023-04-03T11:23:29;99321.09;;;9.62;67.19
1616;BME280;801;47.982;7.810;2023-04-03T11:26:07;99329.81;;;9.81;64.23
1616;BME280;801;47.982;7.810;2023-04-03T11:28:35;99328.69;;;9.65;62.20
1616;BME280;801;47.982;7.810;2023-04-03T11:31:12;99320.91;;;9.28;60.42
1616;BME280;801;47.982;7.810;2023-04-03T11:33:47;99321.50;;;9.18;60.71
1616;BME280;801;47.982;7.810;2023-04-03T11:36:21;99313.78;;;9.33;60.92
1616;BME280;801;47.982;7.810;2023-04-03T11:38:51;99319.16;;;9.33;60.49
1616;BME280;801;47.982;7.810;2023-04-03T11:41:26;99312.47;;;9.48;63.64
1616;BME280;801;47.982;7.810;2023-04-03T11:43:58;99314.00;;;9.55;62.71
1616;BME280;801;47.982;7.810;2023-04-03T11:46:49;99312.47;;;9.60;63.49
1616;BME280;801;47.982;7.810;2023-04-03T11:49:50;99306.75;;;9.56;64.22
1616;BME280;801;47.982;7.810;2023-04-03T11:55:41;99306.53;;;9.46;62.68
1616;BME280;801;47.982;7.810;2023-04-03T11:58:14;99301.41;;;9.56;63.54
1616;BME280;801;47.982;7.810;2023-04-03T12:00:53;99297.06;;;9.95;63.08
1616;BME280;801;47.982;7.810;2023-04-03T12:03:58;99286.91;;;10.26;62.27
1616;BME280;801;47.982;7.810;2023-04-03T12:07:02;99299.56;;;11.44;59.49
1616;BME280;801;47.982;7.810;2023-04-03T12:09:35;99304.81;;;11.95;57.25
1616;BME280;801;47.982;7.810;2023-04-03T12:12:38;99298.75;;;11.43;54.44
1616;BME280;801;47.982;7.810;2023-04-03T12:15:41;99292.13;;;10.95;56.88
1616;BME280;801;47.982;7.810;2023-04-03T12:18:40;99296.69;;;10.78;59.77
1616;BME280;801;47.982;7.810;2023-04-03T12:21:09;99300.94;;;10.74;57.76
1616;BME280;801;47.982;7.810;2023-04-03T12:23:56;99296.44;;;10.46;57.59
1616;BME280;801;47.982;7.810;2023-04-03T12:26:25;99292.88;;;10.28;60.13
1616;BME280;801;47.982;7.810;2023-04-03T12:28:53;99291.81;;;10.01;58.57
1616;BME280;801;47.982;7.810;2023-04-03T12:31:22;99287.19;;;9.96;57.41
1616;BME280;801;47.982;7.810;2023-04-03T12:34:01;99297.06;;;10.07;57.70
1616;BME280;801;47.982;7.810;2023-04-03T12:36:39;99295.63;;;10.16;59.98
1616;BME280;801;47.982;7.810;2023-04-03T12:39:41;99292.84;;;10.11;62.48
1616;BME280;801;47.982;7.810;2023-04-03T12:42:39;99287.28;;;10.30;60.69
1616;BME280;801;47.982;7.810;2023-04-03T12:45:16;99288.78;;;10.26;62.82
1616;BME280;801;47.982;7.810;2023-04-03T12:47:48;99288.03;;;9.73;60.99
1616;BME280;801;47.982;7.810;2023-04-03T12:50:21;99286.00;;;9.92;60.47
1616;BME280;801;47.982;7.810;2023-04-03T12:52:56;99279.13;;;9.96;58.66
1616;BME280;801;47.982;7.810;2023-04-03T12:55:23;99282.41;;;9.86;57.47
1616;BME280;801;47.982;7.810;2023-04-03T12:57:50;99291.75;;;9.84;55.16
1616;BME280;801;47.982;7.810;2023-04-03T13:00:29;99285.72;;;9.76;56.99
1616;BME280;801;47.982;7.810;2023-04-03T13:02:58;99277.63;;;9.88;57.39
1616;BME280;801;47.982;7.810;2023-04-03T13:05:25;99282.09;;;9.71;57.76
1616;BME280;801;47.982;7.810;2023-04-03T13:07:59;99272.47;;;9.58;60.19
1616;BME280;801;47.982;7.810;2023-04-03T13:10:27;99272.38;;;9.82;61.54
1616;BME280;801;47.982;7.810;2023-04-03T13:12:55;99272.88;;;9.79;60.54
1616;BME280;801;47.982;7.810;2023-04-03T13:15:24;99274.56;;;9.56;58.99
1616;BME280;801;47.982;7.810;2023-04-03T13:17:51;99267.78;;;9.65;62.30
1616;BME280;801;47.982;7.810;2023-04-03T13:20:22;99267.28;;;9.68;62.18
1616;BME280;801;47.982;7.810;2023-04-03T13:22:54;99262.66;;;9.52;58.28
1616;BME280;801;47.982;7.810;2023-04-03T13:25:24;99269.88;;;9.63;58.93
1616;BME280;801;47.982;7.810;2023-04-03T13:27:52;99267.94;;;9.47;57.75
1616;BME280;801;47.982;7.810;2023-04-03T13:30:22;99269.03;;;9.74;58.66
1616;BME280;801;47.982;7.810;2023-04-03T13:32:49;99268.94;;;9.69;57.04
1616;BME280;801;47.982;7.810;2023-04-03T13:35:31;99262.03;;;9.73;57.70
1616;BME280;801;47.982;7.810;2023-04-03T13:38:02;99259.81;;;9.70;57.54
1616;BME280;801;47.982;7.810;2023-04-03T13:40:30;99267.88;;;9.70;56.60
1616;BME280;801;47.982;7.810;2023-04-03T13:43:02;99259.72;;;9.65;56.87
1616;BME280;801;47.982;7.810;2023-04-03T13:45:30;99249.88;;;9.71;57.17
1616;BME280;801;47.982;7.810;2023-04-03T13:48:15;99254.66;;;9.81;59.85
1616;BME280;801;47.982;7.810;2023-04-03T13:50:53;99259.34;;;9.73;58.78
1616;BME280;801;47.982;7.810;2023-04-03T13:53:22;99261.75;;;9.87;58.71
1616;BME280;801;47.982;7.810;2023-04-03T13:55:58;99257.53;;;9.91;60.75
1616;BME280;801;47.982;7.810;2023-04-03T13:58:27;99261.66;;;9.82;58.76
1616;BME280;801;47.982;7.810;2023-04-03T14:00:55;99256.56;;;9.68;56.99